Dogpatch, Arkansas
Current Conditions -  °F | °C
As of 8:53 AM on Thursday 23 Oct 2014 (Local Time) from KHRO Reporting Station
Clear Clear  
Wind Chill: 50°   Ceiling: Unl
Heat Index: 50°   Visibility: 10mi
Dew Point: 48°   Wind: 5mph
Humidity: 93%   Direction: 110°ESE
Pressure: 30.2"   Gusts: NA
Location:  36.0842°N, 93.1502°W
Report Text: KHRO 231353Z AUTO 11004KT 10SM CLR 10/09 A3020 RMK AO2 SLP224 T01000089
Loading
Personal Weather Stations






























Interactive Weather Map New forecast layout! Learn more

10-Day Weather Forecast

Advertisements
Track Severe Weather on mobile